Time;durP1;ratioP1;P1;durP2;ratioP2;P2;SDS_P1;SDS_P2;PMS_P1;PMS_P2;Temp;Humidity;BMP_temperature;BMP_pressure;BME280_temperature;BME280_humidity;BME280_pressure;Samples;Min_cycle;Max_cycle;Signal;HPM_P1;HPM_P2
2023/05/14 00:00:50;;;;;;;19.38;12.52;;;12.10;99.90;;;;;;4983121;28;20075;-70
2023/05/14 00:03:16;;;;;;;16.80;11.52;;;12.10;99.90;;;;;;5004929;28;20050;-70
2023/05/14 00:05:42;;;;;;;17.10;11.65;;;12.00;99.90;;;;;;5003519;28;20094;-70
2023/05/14 00:08:07;;;;;;;16.73;12.05;;;12.10;99.90;;;;;;5002908;28;20404;-71
2023/05/14 00:10:33;;;;;;;20.83;12.60;;;12.10;99.90;;;;;;5001457;28;20041;-71
2023/05/14 00:13:00;;;;;;;16.50;12.07;;;12.00;99.90;;;;;;4978419;28;20042;-71
2023/05/14 00:15:26;;;;;;;18.55;12.55;;;12.00;99.90;;;;;;4984173;28;20062;-70
2023/05/14 00:17:51;;;;;;;21.52;12.52;;;12.00;99.90;;;;;;4988478;28;20066;-71
2023/05/14 00:20:17;;;;;;;15.15;12.40;;;12.00;99.90;;;;;;4986684;28;20474;-70
2023/05/14 00:22:43;;;;;;;18.63;12.23;;;11.90;99.90;;;;;;4981537;28;21875;-70
2023/05/14 00:25:09;;;;;;;14.45;12.55;;;11.90;99.90;;;;;;4998097;28;20066;-71
2023/05/14 00:27:36;;;;;;;18.83;11.88;;;11.90;99.90;;;;;;4987104;28;20179;-71
2023/05/14 00:30:05;;;;;;;15.05;12.23;;;11.90;99.90;;;;;;4977644;28;20109;-71
2023/05/14 00:32:31;;;;;;;14.68;12.70;;;11.90;99.90;;;;;;4979431;28;20035;-70
2023/05/14 00:34:57;;;;;;;18.35;12.70;;;11.90;99.90;;;;;;4999631;28;20104;-71
2023/05/14 00:37:23;;;;;;;15.65;12.10;;;11.90;99.90;;;;;;4988467;28;20402;-70
2023/05/14 00:39:49;;;;;;;17.92;12.43;;;11.80;99.90;;;;;;4979882;28;20069;-70
2023/05/14 00:42:14;;;;;;;15.13;13.45;;;11.90;99.90;;;;;;4986691;28;20081;-70
2023/05/14 00:44:40;;;;;;;18.25;13.18;;;11.80;99.90;;;;;;4983230;28;20055;-69
2023/05/14 00:47:07;;;;;;;14.65;12.60;;;11.80;99.90;;;;;;4982191;28;20081;-70
2023/05/14 00:49:33;;;;;;;21.05;13.77;;;11.80;99.90;;;;;;4978925;28;20110;-70
2023/05/14 00:51:59;;;;;;;19.25;13.32;;;11.80;99.90;;;;;;4983990;28;20046;-70
2023/05/14 00:54:26;;;;;;;16.27;13.68;;;11.80;99.90;;;;;;4985963;28;20048;-71
2023/05/14 00:56:53;;;;;;;13.63;11.80;;;11.80;99.90;;;;;;4997865;28;20475;-70
2023/05/14 00:59:19;;;;;;;15.98;13.48;;;11.80;99.90;;;;;;4992958;28;20046;-70
2023/05/14 01:01:45;;;;;;;17.40;12.98;;;11.80;99.90;;;;;;5001312;28;20096;-70
2023/05/14 01:04:11;;;;;;;15.23;13.18;;;11.80;99.90;;;;;;4998013;28;20854;-70
2023/05/14 01:06:57;;;;;;;20.77;13.73;;;11.80;99.90;;;;;;4986551;28;20191;-70
2023/05/14 01:09:53;;;;;;;15.23;13.13;;;11.80;99.90;;;;;;4982245;28;20035;-70
2023/05/14 01:12:29;;;;;;;14.88;13.05;;;11.70;99.90;;;;;;4988582;28;20502;-70
2023/05/14 01:15:05;;;;;;;22.95;14.43;;;11.70;99.90;;;;;;5017823;28;20053;-70
2023/05/14 01:17:37;;;;;;;17.83;13.48;;;11.60;99.90;;;;;;4998464;28;20086;-70
2023/05/14 01:20:03;;;;;;;16.23;11.80;;;11.60;99.90;;;;;;4993284;28;20062;-71
2023/05/14 01:22:29;;;;;;;19.25;14.05;;;11.60;99.90;;;;;;4982449;28;20038;-71
2023/05/14 01:24:55;;;;;;;17.17;13.18;;;11.50;99.90;;;;;;4973631;28;20043;-70
2023/05/14 01:27:42;;;;;;;17.85;13.27;;;11.50;99.90;;;;;;4967635;28;20510;-70
2023/05/14 01:30:28;;;;;;;18.48;14.18;;;11.50;99.90;;;;;;5007113;28;20589;-70
2023/05/14 01:32:59;;;;;;;18.15;13.60;;;11.40;99.90;;;;;;4984517;28;20052;-71
2023/05/14 01:35:29;;;;;;;17.20;13.13;;;11.40;99.90;;;;;;4985884;28;20128;-71
2023/05/14 01:38:02;;;;;;;19.00;14.27;;;11.40;99.90;;;;;;4975808;28;20077;-70
2023/05/14 01:40:30;;;;;;;21.35;14.07;;;11.30;99.90;;;;;;4983247;28;20051;-70
2023/05/14 01:42:56;;;;;;;17.83;13.85;;;11.30;99.90;;;;;;5001510;28;20081;-70
2023/05/14 01:45:25;;;;;;;16.20;14.10;;;11.30;99.90;;;;;;4982374;28;20099;-70
2023/05/14 01:47:52;;;;;;;19.67;13.98;;;11.30;99.90;;;;;;4997199;28;20042;-71
2023/05/14 01:50:18;;;;;;;18.70;14.52;;;11.20;99.90;;;;;;4986287;28;20039;-70
2023/05/14 01:52:43;;;;;;;16.90;14.05;;;11.20;99.90;;;;;;4987416;28;20514;-70
2023/05/14 01:55:09;;;;;;;16.67;13.02;;;11.20;99.90;;;;;;4984120;28;20042;-70
2023/05/14 01:57:35;;;;;;;17.25;13.80;;;11.10;99.90;;;;;;4996629;28;20050;-70
2023/05/14 02:00:01;;;;;;;17.80;13.93;;;11.10;99.90;;;;;;5000975;28;20069;-70
2023/05/14 02:02:27;;;;;;;19.25;14.10;;;11.00;99.90;;;;;;4980090;28;20050;-70
2023/05/14 02:04:52;;;;;;;17.15;14.35;;;11.00;99.90;;;;;;4999613;28;20062;-71
2023/05/14 02:07:18;;;;;;;19.45;14.05;;;10.90;99.90;;;;;;4975079;28;20117;-70
2023/05/14 02:09:44;;;;;;;21.38;13.80;;;11.00;99.90;;;;;;4986068;28;20395;-70
2023/05/14 02:12:12;;;;;;;16.35;13.18;;;11.00;99.90;;;;;;4982802;28;20121;-70
2023/05/14 02:14:38;;;;;;;19.60;14.57;;;10.90;99.90;;;;;;4981868;28;20081;-71
2023/05/14 02:17:04;;;;;;;21.10;14.75;;;10.90;99.90;;;;;;4978069;28;20089;-72
2023/05/14 02:19:29;;;;;;;19.23;14.40;;;10.90;99.90;;;;;;5000880;28;20043;-71
2023/05/14 02:21:55;;;;;;;19.55;14.27;;;10.80;99.90;;;;;;4980292;28;20117;-71
2023/05/14 02:24:21;;;;;;;18.52;15.70;;;10.90;99.90;;;;;;4995969;28;20034;-71
2023/05/14 02:26:47;;;;;;;17.05;14.63;;;10.90;99.90;;;;;;4978470;28;20031;-71
2023/05/14 02:29:12;;;;;;;19.40;15.05;;;10.80;99.90;;;;;;4996483;28;20053;-71
2023/05/14 02:31:38;;;;;;;21.58;15.00;;;10.90;99.90;;;;;;5000071;28;20395;-72
2023/05/14 02:34:07;;;;;;;19.35;14.27;;;10.90;99.90;;;;;;4978613;28;20406;-71
2023/05/14 02:39:13;;;;;;;20.70;15.55;;;10.90;99.90;;;;;;5119759;27;20404;-70
2023/05/14 02:41:39;;;;;;;18.85;15.60;;;10.90;99.90;;;;;;5119809;28;20052;-69
2023/05/14 02:44:04;;;;;;;21.50;14.40;;;10.90;99.90;;;;;;5088773;28;20105;-70
2023/05/14 02:46:31;;;;;;;17.77;14.38;;;10.90;99.90;;;;;;5118335;28;20392;-69
2023/05/14 02:48:57;;;;;;;20.80;14.55;;;10.90;99.90;;;;;;5086322;28;20047;-69
2023/05/14 02:51:23;;;;;;;19.33;14.98;;;10.80;99.90;;;;;;5085203;28;20028;-70
2023/05/14 02:53:48;;;;;;;19.23;15.48;;;10.80;99.90;;;;;;5089985;28;20532;-69
2023/05/14 02:56:14;;;;;;;17.42;14.23;;;10.70;99.90;;;;;;5116968;28;20097;-71
2023/05/14 02:58:40;;;;;;;19.13;15.30;;;10.70;99.90;;;;;;5122248;28;20411;-70
2023/05/14 03:01:06;;;;;;;21.05;14.52;;;10.70;99.90;;;;;;5087937;28;20036;-69
2023/05/14 03:03:31;;;;;;;15.82;13.52;;;10.70;99.90;;;;;;5100763;28;20040;-70
2023/05/14 03:05:57;;;;;;;19.33;13.95;;;10.60;99.90;;;;;;5088462;28;20032;-70
2023/05/14 03:08:23;;;;;;;21.15;14.27;;;10.60;99.90;;;;;;5085650;28;20094;-70
2023/05/14 03:10:48;;;;;;;16.92;13.13;;;10.60;99.90;;;;;;5087155;28;20028;-70
2023/05/14 03:13:18;;;;;;;16.48;13.05;;;10.60;99.90;;;;;;5087004;28;20449;-69
2023/05/14 03:15:45;;;;;;;17.25;13.82;;;10.60;99.90;;;;;;5104664;28;20040;-70
2023/05/14 03:18:12;;;;;;;19.95;13.35;;;10.60;99.90;;;;;;5087448;28;20075;-70
2023/05/14 03:20:37;;;;;;;17.27;13.32;;;10.60;99.90;;;;;;5071484;28;20062;-69
2023/05/14 03:23:03;;;;;;;16.92;12.32;;;10.50;99.90;;;;;;5088349;28;20416;-69
2023/05/14 03:25:29;;;;;;;19.92;12.18;;;10.50;99.90;;;;;;5104693;28;20032;-70
2023/05/14 03:27:55;;;;;;;14.65;11.93;;;10.50;99.90;;;;;;5087948;28;20044;-70
2023/05/14 03:30:20;;;;;;;16.60;12.55;;;10.50;99.90;;;;;;5087189;28;20043;-69
2023/05/14 03:32:46;;;;;;;17.95;11.98;;;10.50;99.90;;;;;;5087397;28;20058;-70
2023/05/14 03:35:12;;;;;;;13.20;11.85;;;10.50;99.90;;;;;;5089072;28;20032;-69
2023/05/14 03:37:38;;;;;;;16.92;12.82;;;10.50;99.90;;;;;;5087810;28;20055;-70
2023/05/14 03:40:04;;;;;;;13.05;11.73;;;10.50;99.90;;;;;;5097844;28;20071;-70
2023/05/14 03:42:30;;;;;;;16.38;11.98;;;10.50;99.90;;;;;;5106925;28;20068;-70
2023/05/14 03:44:55;;;;;;;18.05;12.85;;;10.50;99.90;;;;;;5083367;28;20090;-71
2023/05/14 03:47:21;;;;;;;15.57;12.10;;;10.50;99.90;;;;;;5081690;28;20043;-69
2023/05/14 03:49:47;;;;;;;19.40;12.15;;;10.50;99.90;;;;;;5074943;28;20040;-70
2023/05/14 03:52:12;;;;;;;16.42;12.55;;;10.40;99.90;;;;;;5056829;28;20119;-70
2023/05/14 03:54:40;;;;;;;14.45;12.05;;;10.40;99.90;;;;;;5070258;28;20031;-70
2023/05/14 03:57:06;;;;;;;17.33;12.45;;;10.40;99.90;;;;;;5071969;28;20222;-70
2023/05/14 03:59:31;;;;;;;15.23;13.15;;;10.40;99.90;;;;;;5074646;28;20063;-70
2023/05/14 04:01:57;;;;;;;18.83;12.52;;;10.40;99.90;;;;;;5092496;28;20132;-70
2023/05/14 04:04:23;;;;;;;17.05;12.52;;;10.40;99.90;;;;;;5063782;28;20097;-70
2023/05/14 04:06:48;;;;;;;14.35;11.68;;;10.30;99.90;;;;;;5070111;28;20040;-69
2023/05/14 04:09:14;;;;;;;20.00;13.57;;;10.40;99.90;;;;;;5070943;28;20067;-69
2023/05/14 04:11:40;;;;;;;16.58;12.85;;;10.40;99.90;;;;;;5069717;28;20040;-69
2023/05/14 04:14:06;;;;;;;17.42;12.60;;;10.30;99.90;;;;;;5073282;28;20032;-70
2023/05/14 04:16:31;;;;;;;19.00;12.93;;;10.40;99.90;;;;;;5071602;28;20024;-70
2023/05/14 04:18:59;;;;;;;17.08;12.68;;;10.40;99.90;;;;;;5068539;28;20372;-69
2023/05/14 04:21:24;;;;;;;17.75;12.43;;;10.40;99.90;;;;;;5071515;28;20047;-70
2023/05/14 04:23:50;;;;;;;20.10;12.55;;;10.40;99.90;;;;;;5070982;28;20036;-70
2023/05/14 04:26:17;;;;;;;15.40;11.95;;;10.40;99.90;;;;;;5072258;28;20122;-70
2023/05/14 04:28:42;;;;;;;15.65;12.85;;;10.40;99.90;;;;;;5071883;28;20063;-70
2023/05/14 04:31:08;;;;;;;15.18;12.48;;;10.40;99.90;;;;;;5072886;28;20488;-70
2023/05/14 04:33:34;;;;;;;17.17;12.70;;;10.30;99.90;;;;;;5067962;28;20165;-70
2023/05/14 04:35:59;;;;;;;17.80;12.85;;;10.40;99.90;;;;;;5072999;28;20043;-70
2023/05/14 04:38:25;;;;;;;18.83;12.93;;;10.40;99.90;;;;;;5072383;28;20052;-70
2023/05/14 04:40:51;;;;;;;16.77;12.38;;;10.40;99.90;;;;;;5069140;28;20066;-70
2023/05/14 04:43:17;;;;;;;17.10;13.18;;;10.40;99.90;;;;;;5063204;28;20040;-71
2023/05/14 04:45:42;;;;;;;18.73;12.75;;;10.40;99.90;;;;;;5071556;28;20143;-70
2023/05/14 04:48:08;;;;;;;15.32;13.25;;;10.40;99.90;;;;;;5068354;28;20127;-70
2023/05/14 04:50:34;;;;;;;16.63;12.52;;;10.50;99.90;;;;;;5055813;28;20098;-70
2023/05/14 04:53:00;;;;;;;16.38;13.32;;;10.60;99.90;;;;;;5069105;28;20111;-70
2023/05/14 04:55:26;;;;;;;16.90;13.02;;;10.60;99.90;;;;;;5069940;28;20071;-71
2023/05/14 04:57:51;;;;;;;16.15;12.95;;;10.70;99.90;;;;;;5056210;28;20123;-70
2023/05/14 05:00:18;;;;;;;16.60;12.65;;;10.80;99.90;;;;;;5071695;28;20115;-70
2023/05/14 05:02:43;;;;;;;18.42;13.23;;;10.80;99.90;;;;;;5050680;28;20075;-70
2023/05/14 05:05:09;;;;;;;16.15;12.40;;;10.80;99.90;;;;;;5070719;28;20067;-71
2023/05/14 05:07:35;;;;;;;18.83;12.00;;;10.80;99.90;;;;;;5100475;28;20047;-70
2023/05/14 05:10:01;;;;;;;16.92;12.45;;;10.90;99.90;;;;;;5071293;28;20082;-71
2023/05/14 05:12:29;;;;;;;21.73;12.68;;;10.90;99.90;;;;;;5067105;28;20043;-71
2023/05/14 05:14:57;;;;;;;15.07;11.95;;;10.90;99.90;;;;;;5073890;28;20097;-70
2023/05/14 05:17:24;;;;;;;15.05;12.55;;;10.90;99.90;;;;;;5071968;28;20035;-70
2023/05/14 05:19:49;;;;;;;16.10;12.90;;;11.00;99.90;;;;;;5091053;28;20040;-70
2023/05/14 05:22:15;;;;;;;17.67;11.98;;;11.00;99.90;;;;;;5072023;28;20032;-71
2023/05/14 05:24:41;;;;;;;14.13;11.90;;;11.00;99.90;;;;;;5070050;28;20066;-71
2023/05/14 05:27:07;;;;;;;18.05;12.75;;;11.00;99.90;;;;;;5071374;28;20028;-70
2023/05/14 05:29:34;;;;;;;14.57;13.05;;;11.10;99.90;;;;;;5066949;28;20032;-70
2023/05/14 05:31:59;;;;;;;20.63;13.35;;;11.20;99.90;;;;;;5069914;28;20114;-70
2023/05/14 05:34:25;;;;;;;19.15;12.82;;;11.30;99.90;;;;;;5068301;28;20177;-71
2023/05/14 05:36:51;;;;;;;17.75;13.05;;;11.40;99.90;;;;;;5069176;28;20428;-70
2023/05/14 05:39:17;;;;;;;18.27;12.63;;;11.60;99.90;;;;;;5102324;28;20133;-70
2023/05/14 05:41:43;;;;;;;17.85;14.07;;;11.60;99.90;;;;;;5072569;28;20169;-71
2023/05/14 05:44:09;;;;;;;16.15;13.70;;;11.70;99.90;;;;;;5071688;28;20143;-70
2023/05/14 05:46:34;;;;;;;19.90;13.48;;;11.80;99.90;;;;;;5053113;28;20108;-71
2023/05/14 05:49:00;;;;;;;24.25;14.20;;;11.90;99.90;;;;;;5071650;28;20079;-71
2023/05/14 05:51:26;;;;;;;23.50;15.52;;;11.90;99.90;;;;;;5072440;28;20075;-70
2023/05/14 05:53:51;;;;;;;17.50;13.13;;;11.90;99.90;;;;;;5072220;28;20047;-71
2023/05/14 05:56:17;;;;;;;25.33;15.68;;;11.90;99.90;;;;;;5072222;28;20047;-71
2023/05/14 05:58:43;;;;;;;23.92;14.80;;;12.00;99.90;;;;;;5070479;28;20024;-70
2023/05/14 06:01:08;;;;;;;20.17;13.73;;;12.10;99.90;;;;;;5067141;28;20174;-70
2023/05/14 06:03:34;;;;;;;24.73;14.88;;;12.20;99.90;;;;;;5065481;28;20036;-70
2023/05/14 06:06:00;;;;;;;22.45;15.55;;;12.30;99.90;;;;;;5071212;28;20124;-71
2023/05/14 06:08:25;;;;;;;19.38;14.52;;;12.40;99.90;;;;;;5069923;28;20050;-70
2023/05/14 06:10:51;;;;;;;22.02;14.05;;;12.60;99.90;;;;;;5068572;28;20089;-71
2023/05/14 06:13:17;;;;;;;18.00;13.52;;;12.70;99.90;;;;;;5054673;28;20130;-71
2023/05/14 06:15:43;;;;;;;18.10;13.75;;;12.90;99.90;;;;;;5065176;28;20040;-72
2023/05/14 06:18:08;;;;;;;22.15;14.00;;;13.00;99.90;;;;;;5068851;28;20118;-71
2023/05/14 06:20:34;;;;;;;22.00;14.48;;;13.10;99.90;;;;;;5072334;28;20050;-71
2023/05/14 06:23:00;;;;;;;16.90;13.00;;;13.20;99.90;;;;;;5072309;28;20028;-71
2023/05/14 06:25:26;;;;;;;18.98;12.90;;;13.40;99.90;;;;;;5071374;28;20498;-71
2023/05/14 06:27:51;;;;;;;21.58;12.65;;;13.60;99.90;;;;;;5066175;28;20028;-71
2023/05/14 06:30:17;;;;;;;18.25;12.25;;;13.80;99.90;;;;;;5072505;28;20477;-71
2023/05/14 06:32:43;;;;;;;22.45;12.27;;;14.00;99.90;;;;;;5071756;28;20036;-71
2023/05/14 06:35:09;;;;;;;17.05;10.90;;;14.20;99.90;;;;;;5071019;28;20083;-71
2023/05/14 06:37:35;;;;;;;14.60;10.98;;;14.30;99.90;;;;;;5050860;28;20522;-71
2023/05/14 06:40:01;;;;;;;17.58;11.50;;;14.40;99.90;;;;;;5054635;28;20079;-72
2023/05/14 06:42:26;;;;;;;18.40;10.77;;;14.60;99.90;;;;;;5099243;28;20119;-71
2023/05/14 06:44:53;;;;;;;19.10;11.77;;;14.70;99.90;;;;;;5066200;28;20396;-72
2023/05/14 06:47:19;;;;;;;14.20;10.20;;;14.80;99.90;;;;;;5100825;28;20488;-71
2023/05/14 06:49:45;;;;;;;16.63;10.38;;;14.90;99.90;;;;;;5053697;28;20044;-71
2023/05/14 06:52:11;;;;;;;17.25;9.63;;;15.10;99.90;;;;;;5051559;28;20163;-72
2023/05/14 06:54:36;;;;;;;16.20;9.05;;;15.30;99.90;;;;;;5050462;28;20131;-72
2023/05/14 06:57:02;;;;;;;15.43;8.27;;;15.40;99.90;;;;;;5051963;28;20131;-72
2023/05/14 06:59:28;;;;;;;15.90;7.70;;;15.60;99.90;;;;;;5066855;28;20124;-72
2023/05/14 07:01:54;;;;;;;16.38;7.72;;;15.70;99.90;;;;;;5070665;28;20064;-71
2023/05/14 07:04:23;;;;;;;15.23;7.05;;;15.90;99.90;;;;;;5063791;28;20048;-72
2023/05/14 07:06:48;;;;;;;12.93;7.03;;;16.10;99.90;;;;;;5091175;28;20036;-72
2023/05/14 07:09:15;;;;;;;15.68;7.13;;;16.20;99.90;;;;;;5070126;28;20450;-72
2023/05/14 07:11:41;;;;;;;12.35;7.38;;;16.20;99.90;;;;;;5048530;28;20047;-72
2023/05/14 07:14:06;;;;;;;18.23;7.75;;;16.20;99.90;;;;;;5068050;28;20036;-73
2023/05/14 07:16:32;;;;;;;13.40;7.20;;;16.30;99.90;;;;;;5062550;28;20068;-73
2023/05/14 07:18:58;;;;;;;14.45;7.15;;;16.30;99.90;;;;;;5069186;28;20507;-72
2023/05/14 07:21:24;;;;;;;17.17;7.68;;;16.50;99.90;;;;;;5052875;28;20129;-73
2023/05/14 07:23:50;;;;;;;11.65;5.93;;;16.50;99.90;;;;;;5052245;28;20499;-73
2023/05/14 07:26:16;;;;;;;12.82;6.00;;;16.60;99.90;;;;;;5072566;28;20127;-73
2023/05/14 07:28:42;;;;;;;14.90;6.38;;;16.70;99.90;;;;;;5064329;28;20244;-73
2023/05/14 07:31:07;;;;;;;12.90;6.32;;;16.80;99.90;;;;;;5066870;28;20032;-73
2023/05/14 07:33:35;;;;;;;13.48;5.45;;;16.70;99.90;;;;;;5068094;28;20048;-73
2023/05/14 07:36:01;;;;;;;13.32;5.45;;;16.80;99.90;;;;;;5070542;28;20384;-73
2023/05/14 07:38:27;;;;;;;13.48;5.78;;;16.90;99.90;;;;;;5069853;28;20060;-73
2023/05/14 07:40:53;;;;;;;12.30;6.07;;;17.00;99.90;;;;;;5055414;28;20345;-73
2023/05/14 07:43:19;;;;;;;12.27;5.75;;;17.10;99.90;;;;;;5071524;28;20040;-72
2023/05/14 07:45:44;;;;;;;10.57;5.43;;;17.20;99.90;;;;;;5068301;28;20177;-73
2023/05/14 07:48:10;;;;;;;18.23;10.80;;;17.40;99.90;;;;;;5072795;28;20109;-72
2023/05/14 07:50:36;;;;;;;14.07;7.03;;;17.50;99.90;;;;;;5074619;28;20028;-73
2023/05/14 07:53:02;;;;;;;15.70;5.65;;;17.60;99.90;;;;;;5070351;28;20144;-73
2023/05/14 07:55:28;;;;;;;15.32;5.28;;;17.70;99.90;;;;;;5107617;28;20111;-72
2023/05/14 07:57:54;;;;;;;12.18;5.00;;;17.70;99.90;;;;;;5072127;28;20080;-73
2023/05/14 08:00:19;;;;;;;10.60;4.50;;;17.80;99.90;;;;;;5071704;28;20093;-73
2023/05/14 08:02:45;;;;;;;11.18;4.75;;;17.80;99.90;;;;;;5053325;28;20032;-73
2023/05/14 08:05:11;;;;;;;11.65;4.75;;;17.90;99.90;;;;;;5072034;28;20380;-73
2023/05/14 08:07:37;;;;;;;14.05;5.72;;;18.30;99.90;;;;;;5056549;28;20116;-73
2023/05/14 08:10:03;;;;;;;101.38;90.60;;;18.30;99.90;;;;;;5074117;28;20083;-73
2023/05/14 08:12:29;;;;;;;12.18;5.30;;;18.50;99.90;;;;;;5052338;28;20040;-73
2023/05/14 08:14:55;;;;;;;12.02;4.55;;;18.70;99.90;;;;;;5098309;28;20049;-73
2023/05/14 08:17:20;;;;;;;11.93;4.22;;;18.90;99.90;;;;;;5071008;28;20040;-74
2023/05/14 08:19:46;;;;;;;9.43;4.13;;;19.20;99.90;;;;;;5072076;28;20036;-74
2023/05/14 08:22:12;;;;;;;7.40;3.85;;;19.70;99.90;;;;;;5055656;28;20126;-74
2023/05/14 08:24:38;;;;;;;12.13;4.95;;;20.20;99.90;;;;;;5071874;28;20044;-74
2023/05/14 08:27:04;;;;;;;11.90;4.13;;;20.20;99.90;;;;;;5068772;28;20082;-74
2023/05/14 08:29:30;;;;;;;11.30;4.65;;;20.40;99.90;;;;;;5070799;28;20060;-74
2023/05/14 08:31:56;;;;;;;9.15;3.90;;;20.80;99.90;;;;;;5071853;28;20036;-75
2023/05/14 08:34:21;;;;;;;8.95;4.47;;;21.00;99.90;;;;;;5072974;28;20135;-74
2023/05/14 08:36:47;;;;;;;12.18;3.83;;;20.90;99.90;;;;;;5072030;28;20037;-74
2023/05/14 08:39:13;;;;;;;10.15;3.63;;;20.80;99.90;;;;;;5072400;28;20526;-74
2023/05/14 08:41:39;;;;;;;9.98;3.72;;;20.80;99.90;;;;;;5072081;28;20043;-74
2023/05/14 08:44:13;;;;;;;8.88;3.40;;;20.80;99.90;;;;;;5072449;28;21414;-74
2023/05/14 08:46:40;;;;;;;10.98;3.88;;;20.80;99.90;;;;;;5071377;28;20047;-74
2023/05/14 08:49:23;;;;;;;8.23;3.35;;;20.60;99.90;;;;;;5056886;28;20040;-73
2023/05/14 08:51:49;;;;;;;6.40;3.00;;;20.50;99.90;;;;;;5072261;28;20044;-73
2023/05/14 08:54:16;;;;;;;9.43;3.92;;;20.50;99.90;;;;;;5073670;28;20043;-73
2023/05/14 08:56:45;;;;;;;6.65;3.40;;;20.50;99.90;;;;;;5073314;28;20810;-73
2023/05/14 08:59:11;;;;;;;10.40;3.65;;;20.40;99.90;;;;;;5071732;28;20384;-73
2023/05/14 09:01:42;;;;;;;9.73;3.75;;;20.50;99.90;;;;;;5072630;28;20364;-74
2023/05/14 09:04:09;;;;;;;9.23;3.50;;;20.50;99.90;;;;;;5072982;28;20044;-74
2023/05/14 09:06:36;;;;;;;8.05;3.60;;;20.60;99.90;;;;;;5070979;28;20048;-74
2023/05/14 09:09:03;;;;;;;9.05;3.10;;;20.50;99.90;;;;;;5102882;28;20529;-74
2023/05/14 09:11:29;;;;;;;5.93;3.13;;;20.40;99.90;;;;;;5054556;28;20048;-74
2023/05/14 09:13:55;;;;;;;8.50;3.50;;;20.70;99.90;;;;;;5056390;28;20372;-74
2023/05/14 09:16:21;;;;;;;8.23;3.58;;;21.10;99.90;;;;;;5073272;28;20040;-74
2023/05/14 09:18:47;;;;;;;8.13;3.40;;;21.10;99.90;;;;;;5069246;28;20498;-74
2023/05/14 09:21:14;;;;;;;7.93;3.38;;;21.30;99.90;;;;;;5073040;28;20044;-74
2023/05/14 09:23:44;;;;;;;7.70;3.30;;;21.20;99.90;;;;;;5070967;28;20089;-74
2023/05/14 09:26:10;;;;;;;7.90;3.25;;;21.00;99.90;;;;;;5101097;28;20364;-74
2023/05/14 09:28:40;;;;;;;11.60;3.70;;;20.90;99.90;;;;;;5054160;28;20047;-74
2023/05/14 09:31:07;;;;;;;8.23;3.53;;;21.00;99.90;;;;;;5071540;28;20051;-74
2023/05/14 09:33:33;;;;;;;6.95;4.10;;;21.00;99.90;;;;;;5071383;28;20476;-74
2023/05/14 09:36:00;;;;;;;8.70;3.58;;;20.90;99.90;;;;;;5056080;28;20036;-74
2023/05/14 09:38:31;;;;;;;9.52;3.63;;;21.00;99.90;;;;;;5070409;28;20051;-74
2023/05/14 09:40:58;;;;;;;10.70;5.47;;;21.40;99.90;;;;;;5072865;28;20082;-74
2023/05/14 09:43:24;;;;;;;7.10;4.38;;;21.60;99.90;;;;;;5055731;28;20431;-74
2023/05/14 09:45:53;;;;;;;9.90;4.35;;;21.90;99.90;;;;;;5072943;28;20044;-74
2023/05/14 09:48:21;;;;;;;11.00;3.42;;;22.00;99.90;;;;;;5068536;28;20047;-74
2023/05/14 09:50:46;;;;;;;7.50;3.15;;;21.90;99.90;;;;;;5070836;28;20035;-74
2023/05/14 09:53:13;;;;;;;7.18;3.28;;;22.10;99.90;;;;;;5057624;28;20494;-75
2023/05/14 09:55:39;;;;;;;8.20;3.58;;;22.10;99.90;;;;;;5073342;28;20032;-74
2023/05/14 09:58:05;;;;;;;9.43;3.45;;;22.00;99.20;;;;;;5055580;28;20048;-74
2023/05/14 10:00:32;;;;;;;7.28;2.72;;;22.30;99.90;;;;;;5072043;28;20039;-75
2023/05/14 10:03:01;;;;;;;5.90;2.85;;;22.50;99.80;;;;;;5071128;28;20044;-75
2023/05/14 10:05:27;;;;;;;7.97;3.17;;;22.80;98.90;;;;;;5072173;28;20032;-75
2023/05/14 10:07:57;;;;;;;6.95;3.42;;;22.90;97.00;;;;;;5060955;28;20075;-76
2023/05/14 10:10:27;;;;;;;7.13;3.08;;;23.20;98.50;;;;;;5070902;28;20036;-76
2023/05/14 10:12:57;;;;;;;6.38;3.05;;;23.20;95.40;;;;;;5068829;28;20089;-75
2023/05/14 10:15:32;;;;;;;5.82;2.88;;;23.20;93.60;;;;;;5100967;28;20040;-76
2023/05/14 10:18:02;;;;;;;8.68;3.75;;;23.20;94.30;;;;;;5070562;28;20076;-76
2023/05/14 10:20:29;;;;;;;9.65;2.95;;;23.50;93.40;;;;;;5068399;28;20471;-76
2023/05/14 10:22:56;;;;;;;7.35;3.08;;;23.70;94.70;;;;;;5069770;28;20043;-76
2023/05/14 10:25:22;;;;;;;7.45;3.15;;;24.00;93.00;;;;;;5060379;28;20032;-76
2023/05/14 10:27:48;;;;;;;8.52;3.15;;;24.40;94.00;;;;;;5052763;28;20044;-76
2023/05/14 10:30:14;;;;;;;5.90;2.88;;;24.30;92.10;;;;;;5051790;28;20050;-76
2023/05/14 10:32:43;;;;;;;7.80;2.80;;;24.20;90.40;;;;;;5069799;28;20028;-76
2023/05/14 10:35:21;;;;;;;8.32;2.90;;;24.50;91.40;;;;;;5061057;28;20032;-77
2023/05/14 10:37:51;;;;;;;9.25;3.15;;;24.70;86.50;;;;;;5067302;28;20443;-77
2023/05/14 10:40:17;;;;;;;5.28;2.97;;;24.90;87.80;;;;;;5063702;28;20047;-76
2023/05/14 10:42:45;;;;;;;6.53;2.42;;;24.90;82.00;;;;;;5071830;28;20036;-76
2023/05/14 10:45:15;;;;;;;7.72;2.83;;;24.90;80.10;;;;;;5069997;28;20040;-76
2023/05/14 10:47:45;;;;;;;8.80;3.17;;;25.10;80.60;;;;;;5052506;28;20040;-77
2023/05/14 10:50:13;;;;;;;7.53;2.60;;;25.30;76.10;;;;;;5072334;28;20071;-76
2023/05/14 10:52:44;;;;;;;5.82;2.67;;;25.00;75.80;;;;;;5070293;28;20044;-76
2023/05/14 10:55:14;;;;;;;7.45;2.72;;;24.80;75.80;;;;;;5055521;28;20040;-76
2023/05/14 10:57:44;;;;;;;6.28;2.83;;;24.80;80.10;;;;;;5070625;28;20128;-76
2023/05/14 11:00:12;;;;;;;8.98;3.25;;;24.60;76.50;;;;;;5057733;28;20051;-75
2023/05/14 11:02:40;;;;;;;7.07;3.10;;;24.30;75.00;;;;;;5057674;28;20051;-75
2023/05/14 11:05:09;;;;;;;5.63;3.20;;;24.10;76.70;;;;;;5092264;28;20089;-76
2023/05/14 11:07:43;;;;;;;6.88;3.08;;;24.10;79.60;;;;;;5075382;28;20484;-76
2023/05/14 11:10:10;;;;;;;7.82;2.97;;;24.10;78.80;;;;;;5076664;28;20545;-76
2023/05/14 11:12:38;;;;;;;6.25;3.10;;;24.10;78.70;;;;;;5058582;28;20036;-75
2023/05/14 11:15:08;;;;;;;4.43;2.28;;;24.10;81.60;;;;;;5090653;28;20048;-75
2023/05/14 11:17:35;;;;;;;7.50;2.55;;;24.10;75.60;;;;;;5070797;28;20052;-75
2023/05/14 11:20:01;;;;;;;8.30;3.08;;;24.50;76.80;;;;;;5072833;28;20487;-76
2023/05/14 11:22:27;;;;;;;6.70;2.80;;;24.80;77.30;;;;;;5058662;28;20094;-76
2023/05/14 11:24:53;;;;;;;6.00;3.15;;;25.00;74.80;;;;;;5059656;28;20371;-76
2023/05/14 11:27:21;;;;;;;9.40;2.50;;;25.00;74.30;;;;;;5058253;28;20034;-76
2023/05/14 11:29:48;;;;;;;5.07;2.53;;;25.20;78.20;;;;;;5074845;28;20036;-76
2023/05/14 11:32:14;;;;;;;5.55;2.90;;;25.50;73.70;;;;;;5057129;28;20036;-76
2023/05/14 11:34:43;;;;;;;7.97;2.88;;;25.50;70.30;;;;;;5058413;28;20070;-76
2023/05/14 11:37:09;;;;;;;7.00;2.60;;;25.60;75.30;;;;;;5090856;28;20036;-76
2023/05/14 11:39:38;;;;;;;8.77;2.92;;;25.90;73.30;;;;;;5074499;28;20052;-76
2023/05/14 11:42:11;;;;;;;5.32;2.40;;;26.20;74.50;;;;;;5108543;28;20119;-76
2023/05/14 11:44:37;;;;;;;6.75;2.67;;;26.60;72.80;;;;;;5106870;28;20380;-76
2023/05/14 11:47:04;;;;;;;6.22;2.85;;;26.70;72.20;;;;;;5072817;28;20040;-76
2023/05/14 11:49:31;;;;;;;9.45;3.13;;;26.60;71.90;;;;;;5058061;28;20040;-77
2023/05/14 11:52:01;;;;;;;4.68;2.67;;;26.70;70.90;;;;;;5088062;28;20144;-76
2023/05/14 11:54:28;;;;;;;6.15;2.67;;;26.90;70.50;;;;;;5059515;28;20047;-77
2023/05/14 11:56:55;;;;;;;7.97;2.92;;;27.00;69.20;;;;;;5057235;28;20089;-76
2023/05/14 11:59:24;;;;;;;5.03;2.80;;;26.80;66.00;;;;;;5057269;28;20044;-77
2023/05/14 12:01:51;;;;;;;6.45;2.80;;;26.50;66.10;;;;;;5073810;28;20051;-77
2023/05/14 12:04:21;;;;;;;4.53;2.50;;;26.30;67.60;;;;;;5074864;28;20047;-76
2023/05/14 12:06:48;;;;;;;6.22;2.55;;;26.20;68.40;;;;;;5059692;28;20085;-76
2023/05/14 12:09:16;;;;;;;6.95;2.17;;;25.70;66.30;;;;;;5057108;28;20062;-76
2023/05/14 12:11:42;;;;;;;5.80;2.50;;;25.50;67.60;;;;;;5056664;28;20040;-76
2023/05/14 12:14:14;;;;;;;7.43;2.90;;;25.20;68.40;;;;;;5063720;28;20052;-75
2023/05/14 12:16:42;;;;;;;8.65;2.53;;;24.80;66.50;;;;;;5061540;28;20511;-75
2023/05/14 12:19:10;;;;;;;7.45;2.47;;;24.30;68.80;;;;;;5073891;28;20154;-75
2023/05/14 12:21:37;;;;;;;7.38;3.05;;;24.20;70.10;;;;;;5057246;28;20044;-75
2023/05/14 12:24:03;;;;;;;5.55;2.75;;;24.20;69.90;;;;;;5073467;28;20047;-76
2023/05/14 12:26:32;;;;;;;12.85;2.92;;;24.30;71.80;;;;;;5073386;28;20043;-76
2023/05/14 12:29:00;;;;;;;5.90;2.20;;;24.60;72.00;;;;;;5107269;28;20396;-75
2023/05/14 12:31:30;;;;;;;4.70;2.22;;;24.70;69.10;;;;;;5087363;28;20044;-76
2023/05/14 12:33:56;;;;;;;6.22;2.67;;;24.70;64.60;;;;;;5090747;28;20093;-75